Time;durP1;ratioP1;P1;durP2;ratioP2;P2;SDS_P1;SDS_P2;PMS_P1;PMS_P2;Temp;Humidity;BMP_temperature;BMP_pressure;BME280_temperature;BME280_humidity;BME280_pressure;Samples;Min_cycle;Max_cycle;Signal;HPM_P1;HPM_P2
2023/03/02 00:02:21;;;;;;;1.23;1.00;;;;;;;8.77;82.68;100984.50;4968465;28;20065;-72
2023/03/02 00:04:55;;;;;;;1.45;1.35;;;;;;;8.79;80.30;100987.78;4971502;28;20061;-71
2023/03/02 00:07:26;;;;;;;;;;;;;;;8.81;80.07;100990.25;4955796;29;20047;-71
2023/03/02 00:09:54;;;;;;;0.80;0.75;;;;;;;9.03;79.29;100979.28;4954625;28;19930;-72
2023/03/02 00:12:23;;;;;;;1.20;0.90;;;;;;;8.86;80.18;100982.94;4956308;28;20068;-71
2023/03/02 00:14:51;;;;;;;1.30;1.02;;;;;;;8.80;80.66;100983.16;4972540;28;20053;-72
2023/03/02 00:17:26;;;;;;;1.02;0.90;;;;;;;8.71;80.19;100971.88;4971381;28;20046;-71
2023/03/02 00:20:10;;;;;;;1.08;1.00;;;;;;;8.80;81.01;100974.97;4960410;28;20051;-72
2023/03/02 00:22:39;;;;;;;1.47;1.07;;;;;;;8.91;79.49;100974.00;4968000;28;20065;-72
2023/03/02 00:25:08;;;;;;;1.10;1.00;;;;;;;8.90;78.42;100971.50;4980638;28;20309;-72
2023/03/02 00:27:36;;;;;;;1.10;0.93;;;;;;;8.93;78.51;100981.91;4954842;29;20363;-71
2023/03/02 00:30:06;;;;;;;1.58;1.05;;;;;;;9.05;78.60;100976.28;4954307;28;20051;-72
2023/03/02 00:32:34;;;;;;;1.00;0.90;;;;;;;8.93;78.29;100981.91;4953673;28;20062;-72
2023/03/02 00:35:03;;;;;;;0.73;0.73;;;;;;;9.06;77.86;100975.19;4954155;28;20054;-72
2023/03/02 00:37:31;;;;;;;1.65;1.23;;;;;;;9.06;77.19;100969.75;4954543;28;20047;-72
2023/03/02 00:39:58;;;;;;;0.73;0.73;;;;;;;9.22;77.17;100965.22;4966133;28;20062;-72
2023/03/02 00:42:26;;;;;;;1.20;1.10;;;;;;;8.94;77.90;100967.19;4954833;28;20401;-72
2023/03/02 00:44:54;;;;;;;1.58;1.20;;;;;;;8.92;77.62;100963.88;4973155;28;20062;-72
2023/03/02 00:47:21;;;;;;;1.42;1.05;;;;;;;8.95;77.64;100957.91;4972381;28;20059;-72
2023/03/02 00:49:49;;;;;;;0.93;0.70;;;;;;;8.86;78.26;100966.56;4953934;28;20046;-72
2023/03/02 00:52:17;;;;;;;1.13;1.02;;;;;;;8.91;77.65;100967.69;4961537;28;20047;-71
2023/03/02 00:54:45;;;;;;;1.35;1.00;;;;;;;8.96;77.13;100965.84;4968593;28;20150;-72
2023/03/02 00:57:14;;;;;;;1.25;1.00;;;;;;;9.07;75.93;100958.56;4954819;28;20059;-72
2023/03/02 00:59:41;;;;;;;1.38;0.90;;;;;;;8.93;76.84;100968.25;4939680;28;20043;-72
2023/03/02 01:02:26;;;;;;;1.17;1.00;;;;;;;8.90;75.76;100960.59;4953915;28;20057;-72
2023/03/02 01:04:54;;;;;;;0.60;0.60;;;;;;;9.10;75.03;100960.75;4950940;28;20051;-71
2023/03/02 01:07:25;;;;;;;1.30;1.20;;;;;;;8.97;75.33;100962.03;4990818;28;20042;-72
2023/03/02 01:09:52;;;;;;;1.35;0.80;;;;;;;9.08;74.30;100949.28;4969713;28;20504;-71
2023/03/02 01:12:20;;;;;;;1.05;0.95;;;;;;;9.05;73.64;100947.06;4942890;28;20051;-72
2023/03/02 01:14:49;;;;;;;1.27;1.17;;;;;;;9.17;72.66;100943.31;4972146;28;20474;-71
2023/03/02 01:17:20;;;;;;;1.00;0.85;;;;;;;9.17;73.84;100943.31;4972976;28;20047;-72
2023/03/02 01:19:48;;;;;;;0.82;0.82;;;;;;;8.93;74.81;100939.06;4972712;28;20054;-71
2023/03/02 01:22:17;;;;;;;1.23;1.10;;;;;;;9.05;73.54;100938.88;4955394;28;20054;-71
2023/03/02 01:24:45;;;;;;;1.00;0.85;;;;;;;9.07;73.58;100934.00;4972359;28;20070;-72
2023/03/02 01:27:13;;;;;;;1.73;0.75;;;;;;;9.20;72.64;100931.91;4972859;28;20497;-72
2023/03/02 01:29:41;;;;;;;1.13;0.80;;;;;;;9.11;73.34;100926.94;4955502;28;20047;-72
2023/03/02 01:32:09;;;;;;;1.33;1.20;;;;;;;9.03;73.00;100932.84;4972273;28;20393;-71
2023/03/02 01:34:37;;;;;;;1.60;0.85;;;;;;;9.08;73.30;100924.72;4954928;28;20051;-71
2023/03/02 01:37:06;;;;;;;1.33;0.90;;;;;;;9.11;74.12;100929.66;4955981;28;20054;-72
2023/03/02 01:39:33;;;;;;;1.45;0.82;;;;;;;9.20;72.45;100921.81;4953926;28;20058;-72
2023/03/02 01:42:01;;;;;;;1.80;1.13;;;;;;;9.24;71.52;100919.38;4972058;28;20047;-72
2023/03/02 01:44:49;;;;;;;0.90;0.70;;;;;;;8.92;72.73;100912.03;4972023;28;20051;-71
2023/03/02 01:47:28;;;;;;;2.28;1.00;;;;;;;9.05;72.00;100918.94;4972476;28;20062;-71
2023/03/02 01:50:25;;;;;;;1.02;0.93;;;;;;;9.21;71.86;100917.16;4954148;28;20031;-72
2023/03/02 01:52:56;;;;;;;3.05;1.45;;;;;;;9.11;72.64;100907.81;4958658;28;20066;-71
2023/03/02 01:55:28;;;;;;;2.30;1.23;;;;;;;9.30;72.28;100910.13;4953581;28;20059;-72
2023/03/02 01:57:58;;;;;;;2.28;1.08;;;;;;;9.14;72.50;100915.47;4964710;28;20752;-72
2023/03/02 02:00:30;;;;;;;2.35;1.15;;;;;;;9.26;73.06;100903.53;4943606;29;20389;-72
2023/03/02 02:03:10;;;;;;;2.55;1.25;;;;;;;9.32;72.74;100901.66;4969810;28;20047;-72
2023/03/02 02:05:41;;;;;;;2.53;1.00;;;;;;;9.43;72.35;100899.81;4967020;28;20052;-72
2023/03/02 02:08:09;;;;;;;1.58;1.17;;;;;;;9.37;74.24;100902.53;4936085;29;20047;-72
2023/03/02 02:10:39;;;;;;;2.53;1.52;;;;;;;9.25;74.42;100901.91;4954226;28;20488;-72
2023/03/02 02:13:10;;;;;;;1.35;1.05;;;;;;;9.20;74.53;100901.84;4945490;29;20051;-72
2023/03/02 02:15:40;;;;;;;1.48;1.00;;;;;;;9.19;74.79;100898.28;4970388;28;20047;-72
2023/03/02 02:18:08;;;;;;;2.08;1.42;;;;;;;9.26;75.34;100900.81;4959202;28;20393;-71
2023/03/02 02:20:40;;;;;;;1.63;1.40;;;;;;;9.20;75.17;100899.13;4956646;28;20046;-72
2023/03/02 02:23:54;;;;;;;1.67;1.08;;;;;;;9.13;75.54;100900.19;4974865;28;20070;-72
2023/03/02 02:26:24;;;;;;;1.40;1.30;;;;;;;9.03;77.05;100900.09;4955872;28;20113;-72
2023/03/02 02:28:59;;;;;;;3.85;1.27;;;;;;;8.94;77.69;100891.56;4961194;28;20066;-72
2023/03/02 02:31:32;;;;;;;;;;;;;;;8.93;78.60;100897.28;4974833;28;20401;-71
2023/03/02 02:34:15;;;;;;;1.73;1.45;;;;;;;8.87;79.71;100893.69;4958528;28;19945;-72
2023/03/02 02:36:47;;;;;;;1.65;1.45;;;;;;;8.80;80.24;100893.91;4951266;28;20062;-72
2023/03/02 02:39:22;;;;;;;2.03;1.48;;;;;;;8.84;80.73;100896.94;4957878;28;20058;-72
2023/03/02 02:41:54;;;;;;;2.17;1.45;;;;;;;8.76;81.76;100894.69;4955594;28;20051;-72
2023/03/02 02:44:23;;;;;;;2.20;1.55;;;;;;;8.81;81.36;100892.03;4941423;28;20055;-72
2023/03/02 02:46:50;;;;;;;2.67;1.60;;;;;;;8.72;82.65;100886.22;4957735;28;20077;-72
2023/03/02 02:49:21;;;;;;;1.88;1.63;;;;;;;8.55;82.65;100891.81;4957317;28;20054;-72
2023/03/02 02:51:50;;;;;;;2.28;1.88;;;;;;;8.40;84.18;100895.97;4951502;28;20051;-72
2023/03/02 02:54:18;;;;;;;2.67;1.55;;;;;;;8.35;85.34;100893.19;4948644;28;20054;-72
2023/03/02 02:56:49;;;;;;;2.17;1.98;;;;;;;8.33;85.66;100892.66;4974784;28;20050;-72
2023/03/02 02:59:27;;;;;;;2.95;2.03;;;;;;;8.46;86.28;100891.41;4957132;28;20517;-72
2023/03/02 03:01:58;;;;;;;3.78;1.98;;;;;;;8.39;85.54;100899.78;4957401;28;20046;-71
2023/03/02 03:04:29;;;;;;;2.25;1.83;;;;;;;8.39;85.29;100890.78;4973183;28;20047;-72
2023/03/02 03:07:01;;;;;;;5.70;2.70;;;;;;;8.43;85.41;100900.94;4939365;29;20406;-72
2023/03/02 03:09:30;;;;;;;3.83;2.30;;;;;;;8.52;85.18;100893.13;4959381;28;20050;-72
2023/03/02 03:12:14;;;;;;;2.40;2.20;;;;;;;8.49;86.09;100890.88;4942745;28;20053;-72
2023/03/02 03:14:42;;;;;;;2.30;2.10;;;;;;;8.43;86.71;100895.47;4957844;28;20051;-72
2023/03/02 03:17:12;;;;;;;4.35;2.65;;;;;;;8.39;87.03;100890.78;4957867;28;20303;-72
2023/03/02 03:19:50;;;;;;;8.02;3.70;;;;;;;8.19;88.08;100892.22;4955750;28;20043;-72
2023/03/02 03:22:18;;;;;;;7.10;4.15;;;;;;;8.23;88.14;100898.81;4974023;28;20055;-72
2023/03/02 03:24:48;;;;;;;6.40;4.25;;;;;;;8.33;87.52;100901.63;4956378;28;20051;-72
2023/03/02 03:27:18;;;;;;;8.82;5.28;;;;;;;8.43;87.20;100900.09;4954112;28;20506;-72
2023/03/02 03:29:47;;;;;;;10.75;5.57;;;;;;;8.36;87.47;100905.75;4955548;28;20070;-72
2023/03/02 03:32:17;;;;;;;10.88;6.40;;;;;;;8.39;87.55;100899.78;4937556;29;20055;-72
2023/03/02 03:34:45;;;;;;;13.43;8.00;;;;;;;8.30;88.08;100915.78;4963342;28;20059;-71
2023/03/02 03:37:24;;;;;;;16.50;8.57;;;;;;;8.27;87.78;100902.66;4956973;28;20047;-72
2023/03/02 03:39:52;;;;;;;14.50;7.57;;;;;;;8.16;89.17;100900.94;4956622;28;20047;-72
2023/03/02 03:42:21;;;;;;;14.73;8.25;;;;;;;8.06;89.30;100907.91;4955113;28;20050;-72
2023/03/02 03:44:49;;;;;;;16.20;9.02;;;;;;;8.18;89.52;100905.00;4952418;28;20066;-73
2023/03/02 03:47:17;;;;;;;18.25;9.18;;;;;;;8.14;90.66;100911.25;4978437;28;20058;-72
2023/03/02 03:49:44;;;;;;;17.73;8.98;;;;;;;8.10;90.88;100901.91;4954534;28;20035;-72
2023/03/02 03:52:13;;;;;;;20.40;9.43;;;;;;;8.00;91.12;100911.63;4955182;28;20043;-72
2023/03/02 03:54:41;;;;;;;21.45;10.52;;;;;;;7.98;91.19;100905.63;4938507;29;20051;-72
2023/03/02 03:57:10;;;;;;;21.10;11.73;;;;;;;7.90;91.21;100901.44;4937589;29;20429;-72
2023/03/02 03:59:39;;;;;;;23.23;10.48;;;;;;;7.94;91.09;100901.75;4922647;29;20047;-73
2023/03/02 04:02:07;;;;;;;21.35;11.35;;;;;;;7.89;91.36;100896.25;4937078;29;20058;-72
2023/03/02 04:04:38;;;;;;;24.70;12.25;;;;;;;7.98;91.54;100897.44;4937283;29;20043;-72
2023/03/02 04:07:11;;;;;;;24.65;12.52;;;;;;;7.89;92.78;100893.50;4937989;29;20051;-72
2023/03/02 04:09:39;;;;;;;28.70;13.40;;;;;;;7.93;91.91;100900.13;4922184;29;20055;-72
2023/03/02 04:12:10;;;;;;;27.95;13.77;;;;;;;7.91;91.91;100899.53;4937123;29;20058;-72
2023/03/02 04:14:42;;;;;;;29.48;13.88;;;;;;;7.94;91.90;100899.84;4938116;28;20047;-72
2023/03/02 04:17:10;;;;;;;27.88;13.68;;;;;;;7.87;92.62;100896.50;4936585;29;20051;-72
2023/03/02 04:19:42;;;;;;;26.10;14.25;;;;;;;7.76;92.77;100901.00;4938860;28;20047;-72
2023/03/02 04:22:10;;;;;;;29.83;15.35;;;;;;;7.77;93.24;100902.63;4953772;28;20047;-72
2023/03/02 04:24:38;;;;;;;29.75;15.38;;;;;;;7.76;93.52;100901.00;4939714;28;20627;-72
2023/03/02 04:27:06;;;;;;;31.90;16.13;;;;;;;7.77;93.98;100905.38;4973471;28;20061;-72
2023/03/02 04:29:35;;;;;;;33.05;15.25;;;;;;;7.70;93.97;100903.91;4955653;28;20058;-72
2023/03/02 04:32:06;;;;;;;31.55;16.02;;;;;;;7.68;94.04;100912.34;4972837;28;20397;-72
2023/03/02 04:34:36;;;;;;;32.85;16.45;;;;;;;7.69;94.48;100908.53;4970368;28;20054;-72
2023/03/02 04:37:05;;;;;;;33.25;17.20;;;;;;;7.75;94.71;100910.25;4954087;28;20062;-72
2023/03/02 04:39:33;;;;;;;29.98;14.50;;;;;;;7.71;94.32;100910.97;4953857;28;20418;-72
2023/03/02 04:42:01;;;;;;;34.53;16.90;;;;;;;7.75;94.13;100912.13;4954857;28;20047;-72
2023/03/02 04:44:29;;;;;;;42.20;18.40;;;;;;;7.56;94.83;100898.81;4965261;28;20051;-72
2023/03/02 04:46:56;;;;;;;32.65;16.67;;;;;;;7.68;94.93;100903.34;4955186;28;20078;-72
2023/03/02 04:49:24;;;;;;;35.05;16.13;;;;;;;7.66;95.26;100906.31;4937055;29;20058;-72
2023/03/02 04:51:52;;;;;;;33.80;16.23;;;;;;;7.68;94.61;100908.78;4954587;28;20497;-72
2023/03/02 04:54:25;;;;;;;33.53;15.90;;;;;;;7.61;95.41;100906.22;4972323;28;20540;-72
2023/03/02 04:56:53;;;;;;;30.88;14.50;;;;;;;7.58;95.86;100904.84;4971567;28;20051;-72
2023/03/02 04:59:25;;;;;;;31.95;16.67;;;;;;;7.46;95.99;100913.13;4954652;28;20050;-72
2023/03/02 05:01:59;;;;;;;30.42;16.15;;;;;;;7.51;96.03;100910.47;4960638;28;20409;-72
2023/03/02 05:04:28;;;;;;;34.05;16.10;;;;;;;7.55;95.78;100915.41;4957549;28;20055;-72
2023/03/02 05:06:56;;;;;;;32.97;17.05;;;;;;;7.56;95.54;100908.88;4954146;29;20506;-72
2023/03/02 05:09:29;;;;;;;32.85;15.65;;;;;;;7.51;96.01;100905.03;4953974;29;20386;-72
2023/03/02 05:11:59;;;;;;;33.40;17.17;;;;;;;7.42;96.76;100900.28;4953634;29;20520;-72
2023/03/02 05:14:28;;;;;;;34.03;16.45;;;;;;;7.50;96.48;100900.66;4953527;28;20387;-72
2023/03/02 05:16:56;;;;;;;30.80;16.13;;;;;;;7.42;96.86;100909.25;4953440;29;20047;-71
2023/03/02 05:19:24;;;;;;;31.60;16.38;;;;;;;7.25;97.45;100907.38;4937193;29;20051;-72
2023/03/02 05:21:52;;;;;;;32.55;16.27;;;;;;;7.21;97.86;100906.25;4953644;29;20051;-72
2023/03/02 05:24:20;;;;;;;31.52;15.40;;;;;;;7.28;97.53;100921.56;4936708;29;20382;-82
2023/03/02 05:26:48;;;;;;;32.33;16.50;;;;;;;7.34;98.36;100906.97;4954004;29;20054;-72
2023/03/02 05:29:16;;;;;;;32.92;17.00;;;;;;;7.45;97.46;100906.03;4953818;28;20039;-72
2023/03/02 05:31:45;;;;;;;33.85;16.85;;;;;;;7.45;96.94;100911.47;4954905;28;20046;-71
2023/03/02 05:34:15;;;;;;;34.53;15.57;;;;;;;7.35;97.31;100911.34;4965276;28;20051;-71
2023/03/02 05:36:44;;;;;;;31.17;16.58;;;;;;;7.33;97.28;100918.94;4953594;28;20402;-72
2023/03/02 05:39:12;;;;;;;30.10;14.70;;;;;;;7.31;97.21;100913.72;4959637;28;20537;-71
2023/03/02 05:41:41;;;;;;;30.95;15.82;;;;;;;7.38;96.47;100927.19;4960203;28;20556;-71
2023/03/02 05:44:10;;;;;;;32.42;15.65;;;;;;;7.39;97.90;100923.38;4966618;28;20055;-72
2023/03/02 05:46:39;;;;;;;32.00;15.52;;;;;;;7.31;97.81;100910.16;4953877;28;20054;-71
2023/03/02 05:49:07;;;;;;;28.23;14.55;;;;;;;7.22;97.99;100923.38;4963891;28;20047;-71
2023/03/02 05:51:34;;;;;;;31.13;15.52;;;;;;;7.21;98.15;100928.03;4969395;28;20047;-71
2023/03/02 05:54:03;;;;;;;32.20;15.32;;;;;;;7.29;97.64;100928.66;4975774;28;20055;-71
2023/03/02 05:56:30;;;;;;;33.30;16.38;;;;;;;7.23;98.72;100927.75;4974286;28;20051;-71
2023/03/02 05:58:59;;;;;;;30.77;16.38;;;;;;;7.28;98.94;100937.91;4975231;28;20058;-72
2023/03/02 06:01:27;;;;;;;31.40;14.93;;;;;;;7.24;98.77;100932.94;4960675;28;20060;-71
2023/03/02 06:03:55;;;;;;;33.90;16.00;;;;;;;7.24;98.83;100927.50;4975390;28;20421;-69
2023/03/02 06:06:22;;;;;;;31.90;15.38;;;;;;;7.24;99.22;100932.94;4950940;28;20059;-71
2023/03/02 06:08:50;;;;;;;31.10;15.18;;;;;;;7.35;98.84;100938.56;4975630;28;20470;-72
2023/03/02 06:11:18;;;;;;;32.85;16.70;;;;;;;7.32;98.70;100941.75;4968949;28;20069;-72
2023/03/02 06:13:46;;;;;;;33.63;16.48;;;;;;;7.29;99.01;100939.56;4964595;28;20054;-72
2023/03/02 06:16:14;;;;;;;32.00;15.07;;;;;;;7.36;99.46;100937.47;4974845;28;20053;-72
2023/03/02 06:18:42;;;;;;;30.83;16.48;;;;;;;7.35;98.67;100941.28;4975519;28;20051;-71
2023/03/02 06:21:10;;;;;;;31.08;15.45;;;;;;;7.36;99.15;100941.03;4967396;28;20042;-71
2023/03/02 06:23:38;;;;;;;32.00;16.48;;;;;;;7.26;98.90;100930.81;4962667;28;20066;-71
2023/03/02 06:26:08;;;;;;;29.27;14.35;;;;;;;7.35;98.41;100942.13;4956213;28;20058;-72
2023/03/02 06:28:37;;;;;;;29.27;15.27;;;;;;;7.32;98.44;100942.59;4966400;28;20058;-71
2023/03/02 06:31:20;;;;;;;31.90;15.82;;;;;;;7.40;98.44;100930.47;4973027;28;20058;-74
2023/03/02 06:33:48;;;;;;;31.48;15.35;;;;;;;7.33;98.72;100944.25;4982657;28;20054;-72
2023/03/02 06:36:17;;;;;;;32.00;14.88;;;;;;;7.45;98.50;100940.59;4994505;28;20057;-73
2023/03/02 06:38:45;;;;;;;32.72;16.88;;;;;;;7.48;97.59;100949.09;4995241;28;20050;-72
2023/03/02 06:41:13;;;;;;;33.35;14.80;;;;;;;7.64;97.41;100946.59;4982263;28;20049;-73
2023/03/02 06:43:40;;;;;;;37.92;16.17;;;;;;;7.71;97.25;100946.41;4975696;28;20039;-72
2023/03/02 06:46:08;;;;;;;33.42;16.40;;;;;;;7.80;96.34;100953.91;4974003;28;20532;-71
2023/03/02 06:48:37;;;;;;;27.92;14.05;;;;;;;7.87;92.75;100950.19;4972604;28;20062;-83
2023/03/02 06:51:06;;;;;;;30.33;15.75;;;;;;;7.99;94.04;100952.78;4974282;28;20054;-71
2023/03/02 06:53:34;;;;;;;28.17;14.65;;;;;;;7.80;95.47;100948.47;4975129;28;20050;-71
2023/03/02 06:56:03;;;;;;;28.30;14.55;;;;;;;7.87;95.48;100955.63;4974846;28;20047;-70
2023/03/02 06:58:30;;;;;;;32.17;15.50;;;;;;;7.80;95.87;100959.38;4974345;28;20053;-70
2023/03/02 07:00:58;;;;;;;31.40;15.05;;;;;;;7.94;94.32;100969.88;4972932;28;20050;-71
2023/03/02 07:03:26;;;;;;;29.38;14.57;;;;;;;8.02;94.73;100974.09;4953913;28;20054;-71
2023/03/02 07:05:54;;;;;;;32.33;14.85;;;;;;;8.12;93.95;100963.28;4974298;28;20047;-72
2023/03/02 07:08:22;;;;;;;29.73;15.18;;;;;;;8.03;95.28;100960.19;4974227;28;20055;-71
2023/03/02 07:10:50;;;;;;;33.75;14.90;;;;;;;8.22;94.54;100964.50;4974462;28;20389;-71
2023/03/02 07:13:19;;;;;;;27.13;14.27;;;;;;;8.17;95.63;100974.25;4973458;28;20055;-72
2023/03/02 07:15:46;;;;;;;28.52;14.07;;;;;;;8.06;95.91;100976.03;4974053;28;20046;-71
2023/03/02 07:18:15;;;;;;;28.10;13.00;;;;;;;8.07;95.13;100976.88;4973697;28;20039;-72
2023/03/02 07:20:43;;;;;;;31.23;15.25;;;;;;;8.20;94.00;100965.59;4973979;28;20055;-72
2023/03/02 07:23:11;;;;;;;27.80;13.68;;;;;;;8.40;93.38;100955.16;4973145;28;20065;-73
2023/03/02 07:25:39;;;;;;;29.73;15.05;;;;;;;8.50;93.64;100968.09;4972928;28;20058;-73
2023/03/02 07:28:06;;;;;;;28.50;13.00;;;;;;;8.51;92.06;100969.75;4973913;28;20047;-72
2023/03/02 07:30:34;;;;;;;27.08;13.57;;;;;;;8.37;91.79;100970.16;4973961;28;20046;-73
2023/03/02 07:33:02;;;;;;;29.48;14.52;;;;;;;8.47;91.71;100967.50;4974485;28;20057;-73
2023/03/02 07:35:30;;;;;;;27.55;13.70;;;;;;;8.82;91.37;100981.81;4974510;28;20497;-73
2023/03/02 07:37:58;;;;;;;24.10;13.27;;;;;;;8.93;89.59;100988.19;4974391;28;20046;-72
2023/03/02 07:40:26;;;;;;;25.52;11.00;;;;;;;9.16;86.98;100991.66;4975020;28;20492;-73
2023/03/02 07:42:54;;;;;;;21.00;10.95;;;;;;;9.40;84.77;100986.66;4973935;28;20053;-73
2023/03/02 07:45:23;;;;;;;24.17;11.45;;;;;;;9.46;85.14;100987.53;4974908;28;20046;-73
2023/03/02 07:47:51;;;;;;;21.05;11.65;;;;;;;9.38;88.07;100988.84;4974739;28;20058;-73
2023/03/02 07:50:19;;;;;;;21.48;10.95;;;;;;;9.26;86.66;100985.47;4973529;28;20051;-73
2023/03/02 07:52:47;;;;;;;17.52;9.93;;;;;;;9.28;85.09;100991.47;4974282;28;20055;-73
2023/03/02 07:55:15;;;;;;;20.75;10.48;;;;;;;9.43;84.96;100992.69;4973982;28;20704;-73
2023/03/02 07:57:43;;;;;;;19.45;9.40;;;;;;;9.44;84.82;100986.16;4974449;28;20062;-73
2023/03/02 08:00:11;;;;;;;17.23;9.73;;;;;;;9.65;84.58;100982.47;4974403;28;20058;-73
2023/03/02 08:02:41;;;;;;;21.67;11.25;;;;;;;9.71;84.13;100986.06;4974266;28;20039;-73
2023/03/02 08:05:10;;;;;;;19.52;10.77;;;;;;;9.76;85.62;100986.09;4973268;28;20055;-73
2023/03/02 08:07:39;;;;;;;20.10;10.50;;;;;;;9.87;84.34;100989.69;4973798;28;20054;-73
2023/03/02 08:10:08;;;;;;;24.60;12.73;;;;;;;9.93;83.84;100991.34;4974152;28;20078;-72
2023/03/02 08:12:36;;;;;;;23.27;11.52;;;;;;;9.93;83.24;100994.09;4973315;28;20055;-73
2023/03/02 08:15:05;;;;;;;23.45;11.70;;;;;;;10.21;83.60;100994.78;4973075;28;20057;-73
2023/03/02 08:17:33;;;;;;;23.63;12.20;;;;;;;10.28;83.00;100990.97;4973473;28;20789;-73
2023/03/02 08:20:01;;;;;;;22.98;11.68;;;;;;;10.44;82.76;100984.50;4973944;28;20050;-73
2023/03/02 08:22:29;;;;;;;23.58;11.02;;;;;;;10.59;80.79;100982.88;4972691;28;20474;-73
2023/03/02 08:24:57;;;;;;;25.10;11.02;;;;;;;10.96;79.70;100978.31;4955979;28;20050;-73
2023/03/02 08:27:25;;;;;;;22.95;11.60;;;;;;;10.82;79.38;100972.53;4973520;28;20054;-73
2023/03/02 08:29:53;;;;;;;23.63;12.32;;;;;;;10.95;80.10;100977.47;4972888;28;20049;-73
2023/03/02 08:32:21;;;;;;;23.88;11.95;;;;;;;11.12;78.18;100970.91;4973048;28;20398;-73
2023/03/02 08:34:50;;;;;;;19.85;10.73;;;;;;;11.32;77.21;100966.50;4973735;28;20045;-73
2023/03/02 08:37:18;;;;;;;20.90;11.43;;;;;;;11.56;75.70;100970.34;4972711;28;20398;-73
2023/03/02 08:39:47;;;;;;;19.17;10.20;;;;;;;11.69;75.18;100962.63;4973697;28;20043;-73
2023/03/02 08:42:15;;;;;;;16.92;9.63;;;;;;;11.69;74.29;100968.91;4973568;28;20039;-73
2023/03/02 08:44:43;;;;;;;19.02;10.40;;;;;;;11.73;74.99;100965.63;4972862;28;20061;-73
2023/03/02 08:47:11;;;;;;;22.10;10.40;;;;;;;11.82;74.51;100975.75;4972636;28;20055;-74
2023/03/02 08:49:38;;;;;;;20.38;10.32;;;;;;;12.14;72.79;100967.44;4973836;28;20053;-73
2023/03/02 08:52:06;;;;;;;19.45;8.85;;;;;;;12.41;71.38;100975.25;4972550;28;20058;-73
2023/03/02 08:54:35;;;;;;;17.13;9.75;;;;;;;12.52;69.38;100969.72;4972615;28;20506;-73
2023/03/02 08:57:03;;;;;;;14.43;8.70;;;;;;;12.30;71.32;100965.44;4973300;28;20047;-72
2023/03/02 08:59:31;;;;;;;17.52;9.32;;;;;;;12.63;70.21;100972.09;4972298;28;20055;-72
2023/03/02 09:01:59;;;;;;;17.98;9.38;;;;;;;12.36;71.05;100967.88;4971884;28;20509;-73
2023/03/02 09:04:27;;;;;;;18.17;9.45;;;;;;;12.67;69.76;100977.03;4972382;28;20058;-73
2023/03/02 09:06:55;;;;;;;16.38;8.27;;;;;;;13.21;66.67;100982.69;4972215;28;20050;-74
2023/03/02 09:09:23;;;;;;;15.10;8.35;;;;;;;13.03;64.27;100980.34;4972518;28;20521;-73
2023/03/02 09:11:51;;;;;;;12.02;7.03;;;;;;;12.79;63.97;100977.50;4971871;28;20071;-73
2023/03/02 09:14:19;;;;;;;10.68;7.05;;;;;;;12.45;64.64;100970.00;4972158;28;20494;-73
2023/03/02 09:16:47;;;;;;;15.23;6.47;;;;;;;12.53;64.69;100977.69;4973290;28;20054;-73
2023/03/02 09:19:15;;;;;;;9.43;4.88;;;;;;;12.39;60.01;100976.63;4972475;28;20387;-74
2023/03/02 09:21:43;;;;;;;8.07;5.63;;;;;;;12.38;62.33;100975.00;4971733;28;20050;-73
2023/03/02 09:24:11;;;;;;;9.60;5.50;;;;;;;12.38;64.09;100975.00;4970054;28;20058;-73
2023/03/02 09:26:39;;;;;;;10.60;5.95;;;;;;;12.32;63.39;100977.78;4972474;28;20051;-73
2023/03/02 09:29:08;;;;;;;9.60;4.95;;;;;;;12.07;63.66;100975.94;4970874;28;20051;-73
2023/03/02 09:31:36;;;;;;;8.25;5.18;;;;;;;12.19;63.53;100983.88;4972128;28;20047;-73
2023/03/02 09:34:05;;;;;;;7.72;5.15;;;;;;;12.47;62.34;100978.81;4972438;28;20062;-73
2023/03/02 09:36:33;;;;;;;9.07;4.78;;;;;;;12.74;61.59;100966.53;4971544;28;20051;-73
2023/03/02 09:39:07;;;;;;;9.93;4.97;;;;;;;12.46;63.59;100982.66;4972435;28;20139;-73
2023/03/02 09:41:59;;;;;;;10.75;5.35;;;;;;;12.61;62.59;100985.31;4972686;28;20509;-73
2023/03/02 09:45:04;;;;;;;9.50;4.88;;;;;;;12.77;61.78;100987.97;4972861;28;20051;-73
2023/03/02 09:47:51;;;;;;;7.85;4.50;;;;;;;12.59;60.69;100993.00;4972085;28;20059;-73
2023/03/02 09:50:31;;;;;;;8.00;4.90;;;;;;;12.73;60.62;100992.38;4971815;28;20054;-73
2023/03/02 09:53:05;;;;;;;8.18;4.97;;;;;;;13.43;61.04;100999.53;4972003;28;20426;-73
2023/03/02 09:55:35;;;;;;;7.82;4.93;;;;;;;13.19;57.88;101004.16;4971940;28;20074;-73
2023/03/02 09:58:15;;;;;;;8.38;4.72;;;;;;;13.61;59.21;100999.94;4972682;28;20043;-73
2023/03/02 10:00:44;;;;;;;6.65;4.35;;;;;;;13.79;58.82;101005.81;4971895;28;20494;-73
2023/03/02 10:03:22;;;;;;;6.45;4.47;;;;;;;13.93;58.47;100990.25;4971804;28;20058;-73
2023/03/02 10:05:55;;;;;;;7.75;4.55;;;;;;;13.16;58.76;101000.84;4971984;28;20401;-73
2023/03/02 10:08:30;;;;;;;7.60;5.13;;;;;;;13.53;58.94;101003.31;4971889;28;20055;-73
2023/03/02 10:11:25;;;;;;;7.25;4.78;;;;;;;13.61;57.73;100999.13;4972460;28;20047;-73
2023/03/02 10:14:11;;;;;;;8.82;4.47;;;;;;;13.83;55.84;101002.19;4972583;28;20478;-73
2023/03/02 10:17:31;;;;;;;6.25;4.18;;;;;;;13.59;57.06;101002.16;4971860;28;20398;-73
2023/03/02 10:20:04;;;;;;;6.53;4.20;;;;;;;13.55;56.51;101004.66;4971778;28;20054;-73
2023/03/02 10:22:38;;;;;;;6.43;3.90;;;;;;;13.38;56.77;101007.81;4972224;28;20405;-73
2023/03/02 10:25:28;;;;;;;7.90;4.40;;;;;;;13.12;58.22;100999.81;4971841;28;20062;-73
2023/03/02 10:28:04;;;;;;;5.90;4.47;;;;;;;12.96;61.73;101012.00;4971542;28;20066;-73
2023/03/02 10:30:36;;;;;;;7.10;4.50;;;;;;;13.15;58.61;101004.72;4972321;28;20074;-73
2023/03/02 10:33:16;;;;;;;7.07;4.45;;;;;;;13.30;59.01;101008.47;4971771;28;20054;-73
2023/03/02 10:35:47;;;;;;;5.35;3.92;;;;;;;12.91;58.26;100999.13;4974690;28;20050;-73
2023/03/02 10:38:21;;;;;;;7.63;4.30;;;;;;;12.57;60.51;100997.94;4975158;28;20047;-73
2023/03/02 10:40:58;;;;;;;6.18;4.00;;;;;;;12.18;61.95;100993.22;4975078;28;20055;-73
2023/03/02 10:44:06;;;;;;;5.50;3.30;;;;;;;12.42;60.49;100989.81;4975108;28;20058;-73
2023/03/02 10:46:42;;;;;;;3.55;3.20;;;;;;;12.26;62.23;100995.38;4896539;29;20154;-73
2023/03/02 10:49:45;;;;;;;5.30;2.95;;;;;;;12.16;63.26;100995.41;4965297;28;20062;-73
2023/03/02 10:52:16;;;;;;;3.95;2.50;;;;;;;12.14;59.68;100992.13;4962437;28;20410;-72
2023/03/02 10:54:46;;;;;;;1.42;1.30;;;;;;;11.71;61.34;100990.56;4974752;28;20493;-73
2023/03/02 10:57:36;;;;;;;1.00;0.88;;;;;;;11.65;61.17;100992.53;4974907;28;20055;-73
2023/03/02 11:00:22;;;;;;;3.17;1.35;;;;;;;11.50;61.44;100985.13;4974566;28;20054;-73
2023/03/02 11:02:56;;;;;;;3.08;1.42;;;;;;;11.42;62.63;100982.94;4974713;28;20061;-72
2023/03/02 11:05:36;;;;;;;5.15;1.35;;;;;;;11.38;63.45;100987.31;4974771;28;20055;-72
2023/03/02 11:08:20;;;;;;;3.25;1.30;;;;;;;11.19;64.81;100976.91;4974426;28;20046;-73
2023/03/02 11:10:54;;;;;;;2.30;1.08;;;;;;;11.47;62.74;100982.09;4974824;28;20058;-72
2023/03/02 11:13:30;;;;;;;1.92;0.77;;;;;;;11.31;65.01;100987.63;4974519;28;20505;-72
2023/03/02 11:16:04;;;;;;;1.38;1.25;;;;;;;11.34;63.17;100980.78;4974622;28;20070;-72
2023/03/02 11:18:40;;;;;;;1.27;0.95;;;;;;;11.55;62.99;100979.63;4957150;28;20074;-73
2023/03/02 11:21:13;;;;;;;1.30;1.20;;;;;;;11.28;64.75;100978.03;4974073;28;20493;-73
2023/03/02 11:24:03;;;;;;;2.17;1.30;;;;;;;11.52;63.50;100982.94;4974971;28;20069;-72
2023/03/02 11:26:51;;;;;;;1.30;0.90;;;;;;;11.55;63.29;100982.38;4975113;28;20050;-72
2023/03/02 11:29:28;;;;;;;1.00;0.90;;;;;;;11.26;62.33;100980.22;4974273;28;20042;-73
2023/03/02 11:32:14;;;;;;;0.75;0.73;;;;;;;11.67;62.17;100967.53;4973591;28;20050;-73
2023/03/02 11:34:50;;;;;;;2.85;1.08;;;;;;;11.81;60.55;100973.28;4956997;28;20061;-73
2023/03/02 11:37:28;;;;;;;2.40;1.20;;;;;;;11.84;61.20;100975.47;4974952;28;20054;-72
2023/03/02 11:40:15;;;;;;;2.38;1.02;;;;;;;11.99;61.12;100980.09;4974747;28;20054;-72
2023/03/02 11:42:47;;;;;;;6.60;1.85;;;;;;;11.92;59.58;100979.53;4957061;28;20050;-73
2023/03/02 11:45:21;;;;;;;1.75;1.33;;;;;;;11.45;60.45;100968.69;4974013;28;20066;-73